sensor_id;sensor_type;location;lat;lon;timestamp;P1;durP1;ratioP1;P2;durP2;ratioP2
47824;SDS011;33589;48.242;14.676;2023-06-22T00:01:56;11.70;;;4.55;;
47824;SDS011;33589;48.242;14.676;2023-06-22T00:04:21;15.38;;;3.60;;
47824;SDS011;33589;48.242;14.676;2023-06-22T00:06:47;12.50;;;4.38;;
47824;SDS011;33589;48.242;14.676;2023-06-22T00:09:13;17.15;;;4.13;;
47824;SDS011;33589;48.242;14.676;2023-06-22T00:11:38;10.95;;;3.80;;
47824;SDS011;33589;48.242;14.676;2023-06-22T00:14:04;14.90;;;4.47;;
47824;SDS011;33589;48.242;14.676;2023-06-22T00:16:33;14.02;;;4.32;;
47824;SDS011;33589;48.242;14.676;2023-06-22T00:18:59;13.00;;;4.50;;
47824;SDS011;33589;48.242;14.676;2023-06-22T00:21:29;12.98;;;3.92;;
47824;SDS011;33589;48.242;14.676;2023-06-22T00:23:54;9.93;;;3.85;;
47824;SDS011;33589;48.242;14.676;2023-06-22T00:26:20;10.27;;;3.78;;
47824;SDS011;33589;48.242;14.676;2023-06-22T00:28:47;13.95;;;3.95;;
47824;SDS011;33589;48.242;14.676;2023-06-22T00:31:12;12.88;;;3.90;;
47824;SDS011;33589;48.242;14.676;2023-06-22T00:33:38;9.95;;;3.70;;
47824;SDS011;33589;48.242;14.676;2023-06-22T00:36:04;10.25;;;3.90;;
47824;SDS011;33589;48.242;14.676;2023-06-22T00:38:32;11.00;;;4.18;;
47824;SDS011;33589;48.242;14.676;2023-06-22T00:40:58;8.90;;;3.65;;
47824;SDS011;33589;48.242;14.676;2023-06-22T00:43:24;15.55;;;3.42;;
47824;SDS011;33589;48.242;14.676;2023-06-22T00:45:49;12.48;;;3.72;;
47824;SDS011;33589;48.242;14.676;2023-06-22T00:48:16;11.73;;;3.97;;
47824;SDS011;33589;48.242;14.676;2023-06-22T00:50:42;9.48;;;3.70;;
47824;SDS011;33589;48.242;14.676;2023-06-22T00:53:08;7.70;;;3.35;;
47824;SDS011;33589;48.242;14.676;2023-06-22T00:55:35;17.33;;;4.22;;
47824;SDS011;33589;48.242;14.676;2023-06-22T00:58:05;9.20;;;3.70;;
47824;SDS011;33589;48.242;14.676;2023-06-22T01:00:35;10.93;;;3.67;;
47824;SDS011;33589;48.242;14.676;2023-06-22T01:03:02;12.45;;;3.88;;
47824;SDS011;33589;48.242;14.676;2023-06-22T01:05:28;8.63;;;3.80;;
47824;SDS011;33589;48.242;14.676;2023-06-22T01:08:00;8.13;;;3.63;;
47824;SDS011;33589;48.242;14.676;2023-06-22T01:10:43;11.88;;;4.00;;
47824;SDS011;33589;48.242;14.676;2023-06-22T01:13:35;11.55;;;3.75;;
47824;SDS011;33589;48.242;14.676;2023-06-22T01:18:57;8.75;;;4.00;;
47824;SDS011;33589;48.242;14.676;2023-06-22T01:21:30;9.10;;;3.60;;
47824;SDS011;33589;48.242;14.676;2023-06-22T01:26:56;12.75;;;3.78;;
47824;SDS011;33589;48.242;14.676;2023-06-22T01:29:30;11.70;;;3.63;;
47824;SDS011;33589;48.242;14.676;2023-06-22T01:31:59;11.73;;;4.22;;
47824;SDS011;33589;48.242;14.676;2023-06-22T01:34:27;12.65;;;3.90;;
47824;SDS011;33589;48.242;14.676;2023-06-22T01:36:55;16.67;;;4.07;;
47824;SDS011;33589;48.242;14.676;2023-06-22T01:39:23;14.38;;;3.95;;
47824;SDS011;33589;48.242;14.676;2023-06-22T01:41:51;10.32;;;3.60;;
47824;SDS011;33589;48.242;14.676;2023-06-22T01:44:18;15.45;;;4.18;;
47824;SDS011;33589;48.242;14.676;2023-06-22T01:46:45;11.43;;;4.15;;
47824;SDS011;33589;48.242;14.676;2023-06-22T01:49:13;12.25;;;4.75;;
47824;SDS011;33589;48.242;14.676;2023-06-22T01:51:38;10.40;;;4.00;;
47824;SDS011;33589;48.242;14.676;2023-06-22T01:54:05;12.85;;;3.80;;
47824;SDS011;33589;48.242;14.676;2023-06-22T01:56:32;14.88;;;4.55;;
47824;SDS011;33589;48.242;14.676;2023-06-22T01:59:15;12.43;;;3.95;;
47824;SDS011;33589;48.242;14.676;2023-06-22T02:01:54;13.25;;;3.95;;
47824;SDS011;33589;48.242;14.676;2023-06-22T02:10:34;8.00;;;3.95;;
47824;SDS011;33589;48.242;14.676;2023-06-22T02:13:04;10.55;;;4.00;;
47824;SDS011;33589;48.242;14.676;2023-06-22T02:15:31;12.05;;;4.20;;
47824;SDS011;33589;48.242;14.676;2023-06-22T02:17:57;10.18;;;3.90;;
47824;SDS011;33589;48.242;14.676;2023-06-22T02:20:24;10.00;;;4.65;;
47824;SDS011;33589;48.242;14.676;2023-06-22T02:22:50;12.88;;;4.55;;
47824;SDS011;33589;48.242;14.676;2023-06-22T02:25:15;12.82;;;4.25;;
47824;SDS011;33589;48.242;14.676;2023-06-22T02:27:43;13.02;;;4.25;;
47824;SDS011;33589;48.242;14.676;2023-06-22T02:30:09;13.40;;;4.32;;
47824;SDS011;33589;48.242;14.676;2023-06-22T02:32:37;11.90;;;4.05;;
47824;SDS011;33589;48.242;14.676;2023-06-22T02:35:08;11.35;;;4.78;;
47824;SDS011;33589;48.242;14.676;2023-06-22T02:37:36;13.55;;;4.40;;
47824;SDS011;33589;48.242;14.676;2023-06-22T02:40:08;14.23;;;4.18;;
47824;SDS011;33589;48.242;14.676;2023-06-22T02:42:37;11.02;;;4.15;;
47824;SDS011;33589;48.242;14.676;2023-06-22T02:45:03;14.13;;;4.55;;
47824;SDS011;33589;48.242;14.676;2023-06-22T02:47:29;17.38;;;4.50;;
47824;SDS011;33589;48.242;14.676;2023-06-22T02:49:55;8.43;;;4.00;;
47824;SDS011;33589;48.242;14.676;2023-06-22T02:52:21;12.48;;;4.65;;
47824;SDS011;33589;48.242;14.676;2023-06-22T02:54:47;9.02;;;4.28;;
47824;SDS011;33589;48.242;14.676;2023-06-22T02:57:13;14.40;;;4.30;;
47824;SDS011;33589;48.242;14.676;2023-06-22T02:59:41;15.40;;;4.55;;
47824;SDS011;33589;48.242;14.676;2023-06-22T03:02:09;11.38;;;4.70;;
47824;SDS011;33589;48.242;14.676;2023-06-22T03:04:35;13.57;;;4.20;;
47824;SDS011;33589;48.242;14.676;2023-06-22T03:07:01;13.27;;;4.57;;
47824;SDS011;33589;48.242;14.676;2023-06-22T03:09:28;11.40;;;4.28;;
47824;SDS011;33589;48.242;14.676;2023-06-22T03:11:55;16.45;;;4.85;;
47824;SDS011;33589;48.242;14.676;2023-06-22T03:14:24;12.63;;;4.72;;
47824;SDS011;33589;48.242;14.676;2023-06-22T03:16:51;7.03;;;3.90;;
47824;SDS011;33589;48.242;14.676;2023-06-22T03:19:18;13.43;;;4.38;;
47824;SDS011;33589;48.242;14.676;2023-06-22T03:21:44;13.68;;;4.90;;
47824;SDS011;33589;48.242;14.676;2023-06-22T03:24:10;11.45;;;4.63;;
47824;SDS011;33589;48.242;14.676;2023-06-22T03:26:37;10.18;;;4.35;;
47824;SDS011;33589;48.242;14.676;2023-06-22T03:29:02;15.75;;;4.90;;
47824;SDS011;33589;48.242;14.676;2023-06-22T03:31:29;14.88;;;4.97;;
47824;SDS011;33589;48.242;14.676;2023-06-22T03:33:55;16.00;;;5.35;;
47824;SDS011;33589;48.242;14.676;2023-06-22T03:36:22;14.38;;;4.47;;
47824;SDS011;33589;48.242;14.676;2023-06-22T03:38:48;9.60;;;3.80;;
47824;SDS011;33589;48.242;14.676;2023-06-22T03:41:15;10.05;;;5.57;;
47824;SDS011;33589;48.242;14.676;2023-06-22T03:43:41;6.38;;;4.35;;
47824;SDS011;33589;48.242;14.676;2023-06-22T03:46:07;12.35;;;4.60;;
47824;SDS011;33589;48.242;14.676;2023-06-22T03:48:33;11.85;;;4.80;;
47824;SDS011;33589;48.242;14.676;2023-06-22T03:50:59;16.05;;;4.72;;
47824;SDS011;33589;48.242;14.676;2023-06-22T03:53:26;18.15;;;5.30;;
47824;SDS011;33589;48.242;14.676;2023-06-22T03:55:52;12.10;;;4.82;;
47824;SDS011;33589;48.242;14.676;2023-06-22T03:58:18;10.60;;;4.68;;
47824;SDS011;33589;48.242;14.676;2023-06-22T04:00:52;6.50;;;4.22;;
47824;SDS011;33589;48.242;14.676;2023-06-22T04:03:18;11.85;;;4.70;;
47824;SDS011;33589;48.242;14.676;2023-06-22T04:05:44;8.20;;;4.38;;
47824;SDS011;33589;48.242;14.676;2023-06-22T04:08:10;13.18;;;4.93;;
47824;SDS011;33589;48.242;14.676;2023-06-22T04:10:37;9.95;;;4.72;;
47824;SDS011;33589;48.242;14.676;2023-06-22T04:13:03;15.43;;;4.80;;
47824;SDS011;33589;48.242;14.676;2023-06-22T04:15:28;20.30;;;5.38;;
47824;SDS011;33589;48.242;14.676;2023-06-22T04:17:54;12.25;;;4.90;;
47824;SDS011;33589;48.242;14.676;2023-06-22T04:20:20;8.43;;;4.30;;
47824;SDS011;33589;48.242;14.676;2023-06-22T04:22:46;13.55;;;4.68;;
47824;SDS011;33589;48.242;14.676;2023-06-22T04:25:13;14.65;;;4.93;;
47824;SDS011;33589;48.242;14.676;2023-06-22T04:27:39;10.98;;;4.63;;
47824;SDS011;33589;48.242;14.676;2023-06-22T04:30:07;10.18;;;5.10;;
47824;SDS011;33589;48.242;14.676;2023-06-22T04:32:34;14.65;;;4.63;;
47824;SDS011;33589;48.242;14.676;2023-06-22T04:35:03;10.57;;;5.00;;
47824;SDS011;33589;48.242;14.676;2023-06-22T04:37:32;10.05;;;4.53;;
47824;SDS011;33589;48.242;14.676;2023-06-22T04:39:58;11.38;;;4.25;;
47824;SDS011;33589;48.242;14.676;2023-06-22T04:42:27;11.90;;;4.80;;
47824;SDS011;33589;48.242;14.676;2023-06-22T04:44:53;17.17;;;4.57;;
47824;SDS011;33589;48.242;14.676;2023-06-22T04:47:18;13.82;;;4.72;;
47824;SDS011;33589;48.242;14.676;2023-06-22T04:49:44;14.60;;;4.93;;
47824;SDS011;33589;48.242;14.676;2023-06-22T04:52:11;15.75;;;5.53;;
47824;SDS011;33589;48.242;14.676;2023-06-22T04:54:38;14.57;;;5.00;;
47824;SDS011;33589;48.242;14.676;2023-06-22T04:57:06;16.08;;;5.00;;
47824;SDS011;33589;48.242;14.676;2023-06-22T04:59:36;11.68;;;4.75;;
47824;SDS011;33589;48.242;14.676;2023-06-22T05:02:04;13.15;;;5.38;;
47824;SDS011;33589;48.242;14.676;2023-06-22T05:04:31;16.65;;;5.22;;
47824;SDS011;33589;48.242;14.676;2023-06-22T05:06:57;14.23;;;4.82;;
47824;SDS011;33589;48.242;14.676;2023-06-22T05:09:24;15.40;;;5.88;;
47824;SDS011;33589;48.242;14.676;2023-06-22T05:11:50;16.33;;;5.20;;
47824;SDS011;33589;48.242;14.676;2023-06-22T05:14:16;16.60;;;5.70;;
47824;SDS011;33589;48.242;14.676;2023-06-22T05:16:42;14.15;;;5.28;;
47824;SDS011;33589;48.242;14.676;2023-06-22T05:19:08;13.10;;;5.30;;
47824;SDS011;33589;48.242;14.676;2023-06-22T05:21:34;16.30;;;5.38;;
47824;SDS011;33589;48.242;14.676;2023-06-22T05:24:00;13.20;;;6.13;;
47824;SDS011;33589;48.242;14.676;2023-06-22T05:26:27;11.95;;;5.70;;
47824;SDS011;33589;48.242;14.676;2023-06-22T05:28:57;15.02;;;5.22;;
47824;SDS011;33589;48.242;14.676;2023-06-22T05:31:23;12.75;;;5.75;;
47824;SDS011;33589;48.242;14.676;2023-06-22T05:33:51;16.02;;;5.63;;
47824;SDS011;33589;48.242;14.676;2023-06-22T05:36:17;15.85;;;5.55;;
47824;SDS011;33589;48.242;14.676;2023-06-22T05:38:49;15.07;;;5.78;;
47824;SDS011;33589;48.242;14.676;2023-06-22T05:41:16;19.45;;;6.28;;
47824;SDS011;33589;48.242;14.676;2023-06-22T05:43:41;14.50;;;5.78;;
47824;SDS011;33589;48.242;14.676;2023-06-22T05:46:07;11.50;;;5.80;;
47824;SDS011;33589;48.242;14.676;2023-06-22T05:48:33;16.17;;;6.70;;
47824;SDS011;33589;48.242;14.676;2023-06-22T05:50:58;19.20;;;6.30;;
47824;SDS011;33589;48.242;14.676;2023-06-22T05:53:24;16.13;;;6.38;;
47824;SDS011;33589;48.242;14.676;2023-06-22T05:55:50;17.23;;;5.78;;
47824;SDS011;33589;48.242;14.676;2023-06-22T05:58:16;14.73;;;6.35;;
47824;SDS011;33589;48.242;14.676;2023-06-22T06:00:42;14.70;;;5.95;;
47824;SDS011;33589;48.242;14.676;2023-06-22T06:03:08;20.98;;;6.72;;
47824;SDS011;33589;48.242;14.676;2023-06-22T06:05:34;17.30;;;5.95;;
47824;SDS011;33589;48.242;14.676;2023-06-22T06:08:01;12.82;;;5.63;;
47824;SDS011;33589;48.242;14.676;2023-06-22T06:10:30;16.88;;;7.05;;
47824;SDS011;33589;48.242;14.676;2023-06-22T06:12:56;17.88;;;6.25;;
47824;SDS011;33589;48.242;14.676;2023-06-22T06:15:22;17.38;;;6.75;;
47824;SDS011;33589;48.242;14.676;2023-06-22T06:17:48;13.75;;;6.85;;
47824;SDS011;33589;48.242;14.676;2023-06-22T06:20:17;12.85;;;6.07;;
47824;SDS011;33589;48.242;14.676;2023-06-22T06:22:45;21.55;;;6.68;;
47824;SDS011;33589;48.242;14.676;2023-06-22T06:25:10;14.93;;;6.22;;
47824;SDS011;33589;48.242;14.676;2023-06-22T06:27:41;17.30;;;6.65;;
47824;SDS011;33589;48.242;14.676;2023-06-22T06:30:08;14.93;;;6.95;;
47824;SDS011;33589;48.242;14.676;2023-06-22T06:32:35;13.93;;;6.30;;
47824;SDS011;33589;48.242;14.676;2023-06-22T06:35:00;14.15;;;6.18;;
47824;SDS011;33589;48.242;14.676;2023-06-22T06:37:26;12.63;;;6.22;;
47824;SDS011;33589;48.242;14.676;2023-06-22T06:39:53;16.10;;;6.70;;
47824;SDS011;33589;48.242;14.676;2023-06-22T06:42:18;13.27;;;6.28;;
47824;SDS011;33589;48.242;14.676;2023-06-22T06:44:44;21.80;;;6.75;;
47824;SDS011;33589;48.242;14.676;2023-06-22T06:47:10;21.48;;;7.45;;
47824;SDS011;33589;48.242;14.676;2023-06-22T06:49:36;16.30;;;6.10;;
47824;SDS011;33589;48.242;14.676;2023-06-22T06:52:01;17.15;;;6.20;;
47824;SDS011;33589;48.242;14.676;2023-06-22T06:54:27;14.35;;;6.15;;
47824;SDS011;33589;48.242;14.676;2023-06-22T06:56:53;14.30;;;6.30;;
47824;SDS011;33589;48.242;14.676;2023-06-22T06:59:18;17.13;;;6.43;;
47824;SDS011;33589;48.242;14.676;2023-06-22T07:01:44;15.30;;;6.22;;
47824;SDS011;33589;48.242;14.676;2023-06-22T07:04:10;18.92;;;6.60;;
47824;SDS011;33589;48.242;14.676;2023-06-22T07:06:35;16.77;;;7.05;;
47824;SDS011;33589;48.242;14.676;2023-06-22T07:09:02;14.38;;;6.60;;
47824;SDS011;33589;48.242;14.676;2023-06-22T07:11:28;16.55;;;7.22;;
47824;SDS011;33589;48.242;14.676;2023-06-22T07:13:54;18.88;;;9.45;;
47824;SDS011;33589;48.242;14.676;2023-06-22T07:16:20;20.58;;;7.50;;
47824;SDS011;33589;48.242;14.676;2023-06-22T07:18:46;18.02;;;7.60;;
47824;SDS011;33589;48.242;14.676;2023-06-22T07:21:11;14.93;;;7.18;;
47824;SDS011;33589;48.242;14.676;2023-06-22T07:23:37;23.33;;;8.50;;
47824;SDS011;33589;48.242;14.676;2023-06-22T07:26:03;20.75;;;7.07;;
47824;SDS011;33589;48.242;14.676;2023-06-22T07:28:31;16.83;;;9.32;;
47824;SDS011;33589;48.242;14.676;2023-06-22T07:31:02;22.90;;;9.25;;
47824;SDS011;33589;48.242;14.676;2023-06-22T07:33:28;19.45;;;7.97;;
47824;SDS011;33589;48.242;14.676;2023-06-22T07:35:54;15.23;;;7.70;;
47824;SDS011;33589;48.242;14.676;2023-06-22T07:38:20;17.50;;;7.65;;
47824;SDS011;33589;48.242;14.676;2023-06-22T07:40:45;19.05;;;7.50;;
47824;SDS011;33589;48.242;14.676;2023-06-22T07:43:11;18.67;;;7.70;;
47824;SDS011;33589;48.242;14.676;2023-06-22T07:45:37;18.05;;;7.85;;
47824;SDS011;33589;48.242;14.676;2023-06-22T07:48:04;16.58;;;7.55;;
47824;SDS011;33589;48.242;14.676;2023-06-22T07:50:30;19.90;;;8.90;;
47824;SDS011;33589;48.242;14.676;2023-06-22T07:52:56;19.55;;;8.82;;
47824;SDS011;33589;48.242;14.676;2023-06-22T07:55:21;15.40;;;7.90;;
47824;SDS011;33589;48.242;14.676;2023-06-22T07:57:48;15.77;;;8.45;;
47824;SDS011;33589;48.242;14.676;2023-06-22T08:00:14;16.25;;;7.80;;
47824;SDS011;33589;48.242;14.676;2023-06-22T08:02:42;17.75;;;7.07;;
47824;SDS011;33589;48.242;14.676;2023-06-22T08:05:09;17.42;;;7.63;;
47824;SDS011;33589;48.242;14.676;2023-06-22T08:07:35;17.13;;;7.18;;
47824;SDS011;33589;48.242;14.676;2023-06-22T08:10:06;14.77;;;7.40;;
47824;SDS011;33589;48.242;14.676;2023-06-22T08:12:35;20.55;;;8.35;;
47824;SDS011;33589;48.242;14.676;2023-06-22T08:15:01;17.13;;;6.97;;
47824;SDS011;33589;48.242;14.676;2023-06-22T08:17:26;16.50;;;7.63;;
47824;SDS011;33589;48.242;14.676;2023-06-22T08:19:52;21.40;;;7.55;;
47824;SDS011;33589;48.242;14.676;2023-06-22T08:22:17;16.55;;;7.82;;
47824;SDS011;33589;48.242;14.676;2023-06-22T08:24:44;20.35;;;7.70;;
47824;SDS011;33589;48.242;14.676;2023-06-22T08:27:10;15.15;;;6.85;;
47824;SDS011;33589;48.242;14.676;2023-06-22T08:29:40;15.77;;;7.57;;
47824;SDS011;33589;48.242;14.676;2023-06-22T08:32:08;14.45;;;7.05;;
47824;SDS011;33589;48.242;14.676;2023-06-22T08:34:34;18.50;;;7.97;;
47824;SDS011;33589;48.242;14.676;2023-06-22T08:37:00;18.98;;;7.90;;
47824;SDS011;33589;48.242;14.676;2023-06-22T08:39:26;17.48;;;7.85;;
47824;SDS011;33589;48.242;14.676;2023-06-22T08:41:52;24.60;;;7.35;;
47824;SDS011;33589;48.242;14.676;2023-06-22T08:44:18;21.90;;;8.90;;
47824;SDS011;33589;48.242;14.676;2023-06-22T08:46:44;22.17;;;7.65;;
47824;SDS011;33589;48.242;14.676;2023-06-22T08:49:10;14.18;;;7.55;;
47824;SDS011;33589;48.242;14.676;2023-06-22T08:51:36;17.85;;;7.43;;
47824;SDS011;33589;48.242;14.676;2023-06-22T08:54:04;13.02;;;6.75;;
47824;SDS011;33589;48.242;14.676;2023-06-22T08:56:30;20.95;;;11.77;;
47824;SDS011;33589;48.242;14.676;2023-06-22T08:58:55;16.52;;;6.97;;
47824;SDS011;33589;48.242;14.676;2023-06-22T09:01:21;16.50;;;7.50;;
47824;SDS011;33589;48.242;14.676;2023-06-22T09:03:47;14.95;;;6.95;;
47824;SDS011;33589;48.242;14.676;2023-06-22T09:06:19;17.88;;;7.88;;
47824;SDS011;33589;48.242;14.676;2023-06-22T09:08:46;15.55;;;7.45;;
47824;SDS011;33589;48.242;14.676;2023-06-22T09:11:12;16.10;;;7.13;;
47824;SDS011;33589;48.242;14.676;2023-06-22T09:13:38;18.98;;;6.78;;
47824;SDS011;33589;48.242;14.676;2023-06-22T09:16:04;22.65;;;7.63;;
47824;SDS011;33589;48.242;14.676;2023-06-22T09:18:29;17.75;;;8.32;;
47824;SDS011;33589;48.242;14.676;2023-06-22T09:20:55;18.60;;;7.93;;
47824;SDS011;33589;48.242;14.676;2023-06-22T09:23:21;15.52;;;8.50;;
47824;SDS011;33589;48.242;14.676;2023-06-22T09:25:47;18.92;;;8.27;;
47824;SDS011;33589;48.242;14.676;2023-06-22T09:28:14;19.73;;;7.50;;
47824;SDS011;33589;48.242;14.676;2023-06-22T09:30:40;13.45;;;7.80;;
47824;SDS011;33589;48.242;14.676;2023-06-22T09:33:05;23.17;;;8.07;;
47824;SDS011;33589;48.242;14.676;2023-06-22T09:35:31;14.80;;;8.20;;
47824;SDS011;33589;48.242;14.676;2023-06-22T09:37:57;15.90;;;7.40;;
47824;SDS011;33589;48.242;14.676;2023-06-22T09:40:22;25.17;;;8.27;;
47824;SDS011;33589;48.242;14.676;2023-06-22T09:42:48;19.23;;;8.85;;
47824;SDS011;33589;48.242;14.676;2023-06-22T09:45:13;23.88;;;8.68;;
47824;SDS011;33589;48.242;14.676;2023-06-22T09:47:39;14.20;;;6.90;;
47824;SDS011;33589;48.242;14.676;2023-06-22T09:50:05;20.60;;;7.25;;
47824;SDS011;33589;48.242;14.676;2023-06-22T09:52:31;16.73;;;7.55;;
47824;SDS011;33589;48.242;14.676;2023-06-22T09:54:56;19.38;;;7.00;;
47824;SDS011;33589;48.242;14.676;2023-06-22T09:57:22;15.45;;;10.05;;
47824;SDS011;33589;48.242;14.676;2023-06-22T09:59:48;17.30;;;8.93;;
47824;SDS011;33589;48.242;14.676;2023-06-22T10:02:13;21.27;;;10.40;;
47824;SDS011;33589;48.242;14.676;2023-06-22T10:04:39;17.95;;;7.25;;
47824;SDS011;33589;48.242;14.676;2023-06-22T10:07:05;17.95;;;8.25;;
47824;SDS011;33589;48.242;14.676;2023-06-22T10:09:31;17.98;;;7.63;;
47824;SDS011;33589;48.242;14.676;2023-06-22T10:11:57;19.85;;;8.23;;
47824;SDS011;33589;48.242;14.676;2023-06-22T10:14:22;20.30;;;7.30;;
47824;SDS011;33589;48.242;14.676;2023-06-22T10:16:50;19.83;;;8.60;;
47824;SDS011;33589;48.242;14.676;2023-06-22T10:19:17;21.52;;;8.23;;
47824;SDS011;33589;48.242;14.676;2023-06-22T10:21:43;15.77;;;7.47;;
47824;SDS011;33589;48.242;14.676;2023-06-22T10:24:08;16.65;;;7.57;;
47824;SDS011;33589;48.242;14.676;2023-06-22T10:26:34;16.92;;;7.97;;
47824;SDS011;33589;48.242;14.676;2023-06-22T10:29:01;15.43;;;8.18;;
47824;SDS011;33589;48.242;14.676;2023-06-22T10:31:27;17.02;;;8.00;;
47824;SDS011;33589;48.242;14.676;2023-06-22T10:33:54;21.15;;;8.40;;
47824;SDS011;33589;48.242;14.676;2023-06-22T10:36:20;16.77;;;8.10;;
47824;SDS011;33589;48.242;14.676;2023-06-22T10:38:47;16.30;;;7.53;;
47824;SDS011;33589;48.242;14.676;2023-06-22T10:41:13;18.90;;;7.57;;
47824;SDS011;33589;48.242;14.676;2023-06-22T10:43:39;15.88;;;7.15;;
47824;SDS011;33589;48.242;14.676;2023-06-22T10:46:04;16.98;;;8.18;;
47824;SDS011;33589;48.242;14.676;2023-06-22T10:48:31;19.00;;;8.30;;
47824;SDS011;33589;48.242;14.676;2023-06-22T10:50:57;16.63;;;7.90;;
47824;SDS011;33589;48.242;14.676;2023-06-22T10:53:22;19.45;;;7.18;;
47824;SDS011;33589;48.242;14.676;2023-06-22T10:55:48;15.18;;;7.68;;
47824;SDS011;33589;48.242;14.676;2023-06-22T10:58:14;15.40;;;7.32;;
47824;SDS011;33589;48.242;14.676;2023-06-22T11:00:39;21.08;;;8.18;;
47824;SDS011;33589;48.242;14.676;2023-06-22T11:03:05;20.40;;;11.27;;
47824;SDS011;33589;48.242;14.676;2023-06-22T11:05:31;13.32;;;7.88;;
47824;SDS011;33589;48.242;14.676;2023-06-22T11:07:57;15.45;;;8.93;;
47824;SDS011;33589;48.242;14.676;2023-06-22T11:10:22;23.35;;;8.90;;
47824;SDS011;33589;48.242;14.676;2023-06-22T11:12:48;21.85;;;8.23;;
47824;SDS011;33589;48.242;14.676;2023-06-22T11:15:14;27.05;;;9.25;;
47824;SDS011;33589;48.242;14.676;2023-06-22T11:17:40;17.85;;;9.02;;
47824;SDS011;33589;48.242;14.676;2023-06-22T11:20:05;19.08;;;8.27;;
47824;SDS011;33589;48.242;14.676;2023-06-22T11:22:36;15.32;;;8.80;;
47824;SDS011;33589;48.242;14.676;2023-06-22T11:25:04;19.40;;;9.07;;
47824;SDS011;33589;48.242;14.676;2023-06-22T11:27:30;17.80;;;8.73;;
47824;SDS011;33589;48.242;14.676;2023-06-22T11:29:56;21.67;;;8.45;;
47824;SDS011;33589;48.242;14.676;2023-06-22T11:32:22;18.02;;;8.77;;
47824;SDS011;33589;48.242;14.676;2023-06-22T11:34:48;18.20;;;8.70;;
47824;SDS011;33589;48.242;14.676;2023-06-22T11:37:14;17.77;;;10.43;;
47824;SDS011;33589;48.242;14.676;2023-06-22T11:39:40;18.25;;;8.40;;
47824;SDS011;33589;48.242;14.676;2023-06-22T11:42:06;15.73;;;8.00;;
47824;SDS011;33589;48.242;14.676;2023-06-22T11:44:32;17.80;;;8.05;;
47824;SDS011;33589;48.242;14.676;2023-06-22T11:46:58;21.23;;;8.70;;
47824;SDS011;33589;48.242;14.676;2023-06-22T11:49:25;13.77;;;7.05;;
47824;SDS011;33589;48.242;14.676;2023-06-22T11:51:51;17.17;;;8.30;;
47824;SDS011;33589;48.242;14.676;2023-06-22T11:54:17;15.30;;;7.85;;
47824;SDS011;33589;48.242;14.676;2023-06-22T11:56:43;20.58;;;6.35;;
47824;SDS011;33589;48.242;14.676;2023-06-22T11:59:08;18.42;;;5.90;;
47824;SDS011;33589;48.242;14.676;2023-06-22T12:01:34;14.40;;;6.55;;
47824;SDS011;33589;48.242;14.676;2023-06-22T12:04:00;21.33;;;6.30;;
47824;SDS011;33589;48.242;14.676;2023-06-22T12:06:25;13.35;;;5.78;;
47824;SDS011;33589;48.242;14.676;2023-06-22T12:08:51;16.98;;;5.70;;
47824;SDS011;33589;48.242;14.676;2023-06-22T12:11:17;12.98;;;5.45;;
47824;SDS011;33589;48.242;14.676;2023-06-22T12:13:42;18.10;;;5.20;;
47824;SDS011;33589;48.242;14.676;2023-06-22T12:16:08;13.18;;;4.80;;
47824;SDS011;33589;48.242;14.676;2023-06-22T12:18:34;13.07;;;5.25;;
47824;SDS011;33589;48.242;14.676;2023-06-22T12:20:59;12.27;;;5.00;;
47824;SDS011;33589;48.242;14.676;2023-06-22T12:23:25;11.52;;;5.15;;
47824;SDS011;33589;48.242;14.676;2023-06-22T12:25:50;13.52;;;4.93;;
47824;SDS011;33589;48.242;14.676;2023-06-22T12:28:16;17.98;;;5.22;;
47824;SDS011;33589;48.242;14.676;2023-06-22T12:30:42;12.93;;;4.47;;
47824;SDS011;33589;48.242;14.676;2023-06-22T12:33:07;22.25;;;5.13;;
47824;SDS011;33589;48.242;14.676;2023-06-22T12:35:33;19.55;;;4.78;;
47824;SDS011;33589;48.242;14.676;2023-06-22T12:37:59;23.80;;;5.43;;
47824;SDS011;33589;48.242;14.676;2023-06-22T12:40:25;16.13;;;4.63;;
47824;SDS011;33589;48.242;14.676;2023-06-22T12:42:50;15.88;;;5.03;;
47824;SDS011;33589;48.242;14.676;2023-06-22T12:45:16;19.50;;;4.78;;
47824;SDS011;33589;48.242;14.676;2023-06-22T12:47:42;11.30;;;4.35;;
47824;SDS011;33589;48.242;14.676;2023-06-22T12:50:08;15.85;;;4.90;;
47824;SDS011;33589;48.242;14.676;2023-06-22T12:52:35;17.45;;;4.40;;
47824;SDS011;33589;48.242;14.676;2023-06-22T12:55:04;15.05;;;5.03;;
47824;SDS011;33589;48.242;14.676;2023-06-22T12:57:30;23.40;;;4.45;;
47824;SDS011;33589;48.242;14.676;2023-06-22T12:59:56;11.85;;;4.65;;
47824;SDS011;33589;48.242;14.676;2023-06-22T13:02:23;17.10;;;4.35;;
47824;SDS011;33589;48.242;14.676;2023-06-22T13:04:49;15.52;;;4.40;;
47824;SDS011;33589;48.242;14.676;2023-06-22T13:07:14;11.25;;;4.57;;
47824;SDS011;33589;48.242;14.676;2023-06-22T13:09:40;11.38;;;4.25;;
47824;SDS011;33589;48.242;14.676;2023-06-22T13:12:06;10.93;;;4.60;;
47824;SDS011;33589;48.242;14.676;2023-06-22T13:14:32;13.25;;;4.55;;
47824;SDS011;33589;48.242;14.676;2023-06-22T13:16:57;14.93;;;4.97;;
47824;SDS011;33589;48.242;14.676;2023-06-22T13:19:23;11.48;;;4.28;;
47824;SDS011;33589;48.242;14.676;2023-06-22T13:21:49;18.63;;;4.57;;
47824;SDS011;33589;48.242;14.676;2023-06-22T13:24:15;15.73;;;4.38;;
47824;SDS011;33589;48.242;14.676;2023-06-22T13:26:41;15.43;;;4.43;;
47824;SDS011;33589;48.242;14.676;2023-06-22T13:29:07;10.07;;;4.32;;
47824;SDS011;33589;48.242;14.676;2023-06-22T13:31:32;12.48;;;4.70;;
47824;SDS011;33589;48.242;14.676;2023-06-22T13:33:58;11.13;;;4.15;;
47824;SDS011;33589;48.242;14.676;2023-06-22T13:36:24;8.18;;;3.95;;
47824;SDS011;33589;48.242;14.676;2023-06-22T13:38:49;19.60;;;5.28;;
47824;SDS011;33589;48.242;14.676;2023-06-22T13:41:15;16.73;;;4.72;;
47824;SDS011;33589;48.242;14.676;2023-06-22T13:43:41;18.00;;;4.38;;
47824;SDS011;33589;48.242;14.676;2023-06-22T13:46:06;9.93;;;4.28;;
47824;SDS011;33589;48.242;14.676;2023-06-22T13:48:32;15.55;;;4.63;;
47824;SDS011;33589;48.242;14.676;2023-06-22T13:50:58;16.63;;;4.40;;
47824;SDS011;33589;48.242;14.676;2023-06-22T13:53:24;18.25;;;4.38;;
47824;SDS011;33589;48.242;14.676;2023-06-22T13:55:51;21.48;;;5.15;;
47824;SDS011;33589;48.242;14.676;2023-06-22T13:58:16;15.88;;;4.68;;
47824;SDS011;33589;48.242;14.676;2023-06-22T14:00:44;15.93;;;4.82;;
47824;SDS011;33589;48.242;14.676;2023-06-22T14:03:10;19.73;;;4.38;;
47824;SDS011;33589;48.242;14.676;2023-06-22T14:05:36;14.45;;;4.60;;
47824;SDS011;33589;48.242;14.676;2023-06-22T14:08:01;9.45;;;3.30;;
47824;SDS011;33589;48.242;14.676;2023-06-22T14:10:27;8.60;;;3.90;;
47824;SDS011;33589;48.242;14.676;2023-06-22T14:12:53;13.35;;;3.70;;
47824;SDS011;33589;48.242;14.676;2023-06-22T14:15:18;9.55;;;3.60;;
47824;SDS011;33589;48.242;14.676;2023-06-22T14:17:44;6.68;;;3.38;;
47824;SDS011;33589;48.242;14.676;2023-06-22T14:20:10;7.93;;;3.17;;
47824;SDS011;33589;48.242;14.676;2023-06-22T14:22:36;8.15;;;3.10;;
47824;SDS011;33589;48.242;14.676;2023-06-22T14:25:01;7.35;;;3.42;;
47824;SDS011;33589;48.242;14.676;2023-06-22T14:27:27;7.75;;;3.15;;
47824;SDS011;33589;48.242;14.676;2023-06-22T14:29:53;8.88;;;3.00;;
47824;SDS011;33589;48.242;14.676;2023-06-22T14:32:18;4.22;;;3.00;;